Time;durP1;ratioP1;P1;durP2;ratioP2;P2;SDS_P1;SDS_P2;PMS_P1;PMS_P2;Temp;Humidity;BMP_temperature;BMP_pressure;BME280_temperature;BME280_humidity;BME280_pressure;Samples;Min_cycle;Max_cycle;Signal;HPM_P1;HPM_P2
2023/05/28 00:01:25;;;;;;;7.60;4.33;;;13.30;99.90;;;;;;5051915;28;20242;-55
2023/05/28 00:03:53;;;;;;;7.37;4.30;;;13.40;99.90;;;;;;5047764;28;20713;-55
2023/05/28 00:06:25;;;;;;;5.23;3.70;;;13.40;99.90;;;;;;5052379;28;20274;-54
2023/05/28 00:08:53;;;;;;;8.57;4.13;;;13.40;99.90;;;;;;5051362;28;20579;-51
2023/05/28 00:11:21;;;;;;;8.33;3.93;;;13.30;99.90;;;;;;5052119;28;20230;-54
2023/05/28 00:13:49;;;;;;;6.47;3.90;;;13.40;99.90;;;;;;5051890;28;20578;-54
2023/05/28 00:16:17;;;;;;;7.43;4.23;;;13.30;99.90;;;;;;5052124;28;20738;-54
2023/05/28 00:18:47;;;;;;;7.10;4.50;;;13.50;99.90;;;;;;5050869;28;20219;-54
2023/05/28 00:21:15;;;;;;;8.57;4.40;;;13.40;99.90;;;;;;5051682;28;20719;-53
2023/05/28 00:23:43;;;;;;;6.73;4.50;;;13.40;99.90;;;;;;5051758;28;20245;-54
2023/05/28 00:26:11;;;;;;;10.87;5.00;;;13.30;99.90;;;;;;5053735;28;20227;-54
2023/05/28 00:28:41;;;;;;;7.17;4.53;;;13.30;99.90;;;;;;5053662;28;20246;-54
2023/05/28 00:31:10;;;;;;;8.37;4.40;;;13.50;99.90;;;;;;5055249;28;20325;-53
2023/05/28 00:33:38;;;;;;;9.07;4.73;;;13.40;99.90;;;;;;5053597;28;20220;-54
2023/05/28 00:36:08;;;;;;;8.73;4.13;;;13.40;99.90;;;;;;5058977;28;20677;-55
2023/05/28 00:38:36;;;;;;;10.03;4.60;;;13.50;99.90;;;;;;5054548;28;20231;-55
2023/05/28 00:41:04;;;;;;;8.13;4.97;;;13.60;99.90;;;;;;5055480;28;20227;-54
2023/05/28 00:43:33;;;;;;;7.50;4.57;;;13.60;99.90;;;;;;5054277;28;20227;-54
2023/05/28 00:46:02;;;;;;;8.63;4.70;;;13.50;99.90;;;;;;5055365;28;20307;-53
2023/05/28 00:48:31;;;;;;;8.27;4.80;;;13.40;99.90;;;;;;5050117;28;20228;-54
2023/05/28 00:50:59;;;;;;;7.90;4.77;;;13.30;99.90;;;;;;5055049;28;20223;-55
2023/05/28 00:53:29;;;;;;;8.63;4.97;;;13.40;99.90;;;;;;5055015;28;20341;-53
2023/05/28 00:55:58;;;;;;;8.23;4.80;;;13.40;99.90;;;;;;5052519;28;20721;-53
2023/05/28 00:58:28;;;;;;;7.30;4.20;;;13.10;99.90;;;;;;5054344;28;20586;-54
2023/05/28 01:00:56;;;;;;;6.67;4.43;;;13.00;99.90;;;;;;5054507;28;20220;-54
2023/05/28 01:03:25;;;;;;;8.17;5.03;;;13.00;99.90;;;;;;5050585;28;20702;-54
2023/05/28 01:05:53;;;;;;;8.63;4.70;;;12.90;99.90;;;;;;5054833;28;20219;-55
2023/05/28 01:08:21;;;;;;;6.07;4.20;;;13.20;99.90;;;;;;5054951;28;20658;-54
2023/05/28 01:10:51;;;;;;;7.27;4.43;;;13.20;99.90;;;;;;5055507;28;20310;-54
2023/05/28 01:13:19;;;;;;;7.53;4.70;;;13.20;99.90;;;;;;5054818;28;20224;-54
2023/05/28 01:15:48;;;;;;;8.53;5.20;;;13.20;99.90;;;;;;5034946;28;20233;-55
2023/05/28 01:18:16;;;;;;;6.10;4.13;;;12.80;99.90;;;;;;5039415;28;20575;-55
2023/05/28 01:20:45;;;;;;;6.27;4.20;;;12.60;99.90;;;;;;5054149;28;20250;-55
2023/05/28 01:23:20;;;;;;;5.93;4.03;;;12.30;99.90;;;;;;5053423;28;20624;-53
2023/05/28 01:25:52;;;;;;;6.27;4.17;;;12.10;99.90;;;;;;5051835;28;20276;-55
2023/05/28 01:28:21;;;;;;;6.83;3.50;;;12.10;99.90;;;;;;5053235;28;20223;-55
2023/05/28 01:30:49;;;;;;;6.60;3.60;;;12.20;99.90;;;;;;5045950;28;20243;-56
2023/05/28 01:33:18;;;;;;;4.73;3.73;;;12.50;99.90;;;;;;5048161;28;20219;-53
2023/05/28 01:35:47;;;;;;;7.30;3.90;;;12.30;99.90;;;;;;5049506;28;20232;-56
2023/05/28 01:38:16;;;;;;;5.03;3.57;;;12.10;99.90;;;;;;5053145;28;20242;-55
2023/05/28 01:40:46;;;;;;;4.63;3.77;;;12.10;99.90;;;;;;5052174;28;20235;-55
2023/05/28 01:43:16;;;;;;;5.90;4.03;;;12.00;99.90;;;;;;5053009;28;20227;-53
2023/05/28 01:45:44;;;;;;;6.80;4.13;;;12.10;99.90;;;;;;5054032;28;20239;-54
2023/05/28 01:48:13;;;;;;;8.07;4.63;;;12.10;99.90;;;;;;5052613;28;20631;-55
2023/05/28 01:50:42;;;;;;;8.60;4.17;;;12.20;99.90;;;;;;5042998;28;20599;-56
2023/05/28 01:53:10;;;;;;;6.43;4.10;;;12.20;99.90;;;;;;5051451;28;20241;-54
2023/05/28 01:55:38;;;;;;;9.63;4.60;;;12.30;99.90;;;;;;5043559;28;20228;-55
2023/05/28 01:58:08;;;;;;;8.07;4.40;;;12.40;99.90;;;;;;5051890;28;20701;-55
2023/05/28 02:00:44;;;;;;;9.80;5.00;;;12.50;99.90;;;;;;5051960;28;20239;-54
2023/05/28 02:03:12;;;;;;;8.20;4.20;;;12.10;99.90;;;;;;5050990;28;20230;-54
2023/05/28 02:05:41;;;;;;;5.10;4.10;;;11.90;99.90;;;;;;5055847;28;20258;-55
2023/05/28 02:08:09;;;;;;;5.23;3.83;;;11.80;99.90;;;;;;5050421;28;20222;-54
2023/05/28 02:10:37;;;;;;;4.00;3.43;;;11.70;99.90;;;;;;5052833;28;20269;-54
2023/05/28 02:13:05;;;;;;;5.13;3.40;;;11.60;99.90;;;;;;5052269;28;20300;-54
2023/05/28 02:15:33;;;;;;;5.27;3.60;;;11.40;99.90;;;;;;5052199;28;20226;-54
2023/05/28 02:18:03;;;;;;;6.07;3.67;;;11.50;99.90;;;;;;5053623;28;20743;-55
2023/05/28 02:20:32;;;;;;;5.23;4.33;;;11.60;99.90;;;;;;5051596;28;20706;-54
2023/05/28 02:23:00;;;;;;;4.93;3.60;;;11.70;99.90;;;;;;5052128;28;20605;-55
2023/05/28 02:25:28;;;;;;;5.87;4.33;;;11.70;99.90;;;;;;5051996;28;20220;-55
2023/05/28 02:27:56;;;;;;;5.10;3.70;;;11.90;99.90;;;;;;5053328;28;20227;-55
2023/05/28 02:30:25;;;;;;;4.80;3.53;;;11.90;99.90;;;;;;5051693;28;20227;-55
2023/05/28 02:32:54;;;;;;;5.97;4.03;;;12.00;99.90;;;;;;5051507;28;20239;-55
2023/05/28 02:35:24;;;;;;;7.37;4.20;;;11.90;99.90;;;;;;5054061;28;20686;-54
2023/05/28 02:37:52;;;;;;;7.43;4.63;;;11.80;99.90;;;;;;5051902;28;20235;-54
2023/05/28 02:40:21;;;;;;;8.80;4.60;;;12.00;99.90;;;;;;5051968;28;20235;-55
2023/05/28 02:42:49;;;;;;;6.23;4.33;;;11.70;99.90;;;;;;5051794;28;20231;-54
2023/05/28 02:45:18;;;;;;;7.90;4.87;;;11.60;99.90;;;;;;5051801;28;20235;-55
2023/05/28 02:47:47;;;;;;;5.77;3.77;;;11.50;99.90;;;;;;5050361;28;20226;-55
2023/05/28 02:50:15;;;;;;;6.13;3.90;;;11.60;99.90;;;;;;5044786;28;20326;-56
2023/05/28 02:53:03;;;;;;;5.90;3.77;;;11.70;99.90;;;;;;5051398;28;20719;-54
2023/05/28 02:55:31;;;;;;;5.30;4.10;;;11.90;99.90;;;;;;5048530;28;20582;-55
2023/05/28 02:57:59;;;;;;;6.03;4.10;;;11.80;99.90;;;;;;5052835;28;20298;-55
2023/05/28 03:00:27;;;;;;;6.53;4.20;;;12.00;99.90;;;;;;5051218;28;20767;-55
2023/05/28 03:02:58;;;;;;;6.37;3.97;;;12.00;99.90;;;;;;5051078;28;20245;-55
2023/05/28 03:05:27;;;;;;;6.87;4.47;;;12.20;99.90;;;;;;5054855;28;20306;-54
2023/05/28 03:07:56;;;;;;;6.00;4.30;;;12.00;99.90;;;;;;5052781;28;20710;-54
2023/05/28 03:10:25;;;;;;;8.47;4.90;;;11.90;99.90;;;;;;5051611;28;20265;-55
2023/05/28 03:12:53;;;;;;;7.07;4.50;;;12.10;99.90;;;;;;5052725;28;20692;-55
2023/05/28 03:15:21;;;;;;;8.27;4.40;;;12.10;99.90;;;;;;5051436;28;20227;-55
2023/05/28 03:17:49;;;;;;;9.10;5.00;;;12.00;99.90;;;;;;5051417;28;20234;-56
2023/05/28 03:20:18;;;;;;;6.80;4.20;;;12.10;99.90;;;;;;5047497;28;20256;-53
2023/05/28 03:22:49;;;;;;;8.10;4.57;;;12.10;99.90;;;;;;5051085;28;20277;-53
2023/05/28 03:25:17;;;;;;;9.00;4.73;;;12.10;99.90;;;;;;5048551;28;20284;-55
2023/05/28 03:27:47;;;;;;;9.27;4.97;;;12.20;99.90;;;;;;5050965;28;20285;-54
2023/05/28 03:30:15;;;;;;;9.67;5.17;;;11.90;99.90;;;;;;5050842;28;20710;-55
2023/05/28 03:32:48;;;;;;;9.10;5.07;;;11.70;99.90;;;;;;5051116;28;20229;-55
2023/05/28 03:35:16;;;;;;;5.33;4.00;;;11.50;99.90;;;;;;5043965;28;20229;-55
2023/05/28 03:37:45;;;;;;;4.80;4.13;;;11.50;99.90;;;;;;5050841;28;20235;-54
2023/05/28 03:40:13;;;;;;;7.60;3.77;;;11.60;99.90;;;;;;5052507;28;20748;-54
2023/05/28 03:42:41;;;;;;;5.73;3.87;;;11.70;99.90;;;;;;5052315;28;20581;-54
2023/05/28 03:45:11;;;;;;;7.57;4.70;;;12.00;99.90;;;;;;5051183;28;20308;-54
2023/05/28 03:47:39;;;;;;;5.40;3.97;;;12.00;99.90;;;;;;5050973;28;20235;-55
2023/05/28 03:50:08;;;;;;;6.93;4.90;;;11.90;99.90;;;;;;5050456;28;20226;-55
2023/05/28 03:52:36;;;;;;;7.77;4.57;;;12.10;99.90;;;;;;5048447;28;20269;-53
2023/05/28 03:55:05;;;;;;;5.60;4.40;;;12.20;99.90;;;;;;5051315;28;20330;-55
2023/05/28 03:57:33;;;;;;;5.47;4.27;;;12.00;99.90;;;;;;5050520;28;20231;-55
2023/05/28 04:00:03;;;;;;;6.07;4.37;;;11.80;99.90;;;;;;5055355;28;20220;-54
2023/05/28 04:02:34;;;;;;;5.80;4.40;;;11.70;99.90;;;;;;5055699;28;20265;-55
2023/05/28 04:05:02;;;;;;;5.47;4.00;;;11.60;99.90;;;;;;5050837;28;20713;-55
2023/05/28 04:07:30;;;;;;;6.83;5.70;;;11.90;99.90;;;;;;5044261;28;20697;-55
2023/05/28 04:09:58;;;;;;;5.40;4.90;;;11.90;99.90;;;;;;5044005;28;20227;-53
2023/05/28 04:12:27;;;;;;;8.73;5.17;;;11.80;99.90;;;;;;5054637;28;20231;-55
2023/05/28 04:14:55;;;;;;;9.47;4.80;;;12.00;99.90;;;;;;5054765;28;20662;-55
2023/05/28 04:17:23;;;;;;;6.80;4.60;;;12.30;99.90;;;;;;5054640;28;20767;-54
2023/05/28 04:19:54;;;;;;;7.33;4.30;;;12.40;99.90;;;;;;5056875;28;20228;-55
2023/05/28 04:22:24;;;;;;;6.60;4.73;;;12.40;99.90;;;;;;5050851;28;20733;-55
2023/05/28 04:24:55;;;;;;;7.00;5.20;;;12.60;99.90;;;;;;5055872;28;20223;-55
2023/05/28 04:27:24;;;;;;;7.50;5.57;;;12.70;99.90;;;;;;5055825;28;20220;-54
2023/05/28 04:29:54;;;;;;;9.83;5.87;;;12.80;99.90;;;;;;5055753;28;20231;-55
2023/05/28 04:32:23;;;;;;;10.83;5.67;;;12.80;99.90;;;;;;5054084;28;20238;-54
2023/05/28 04:34:53;;;;;;;9.20;5.23;;;12.80;99.90;;;;;;5057979;28;20246;-53
2023/05/28 04:37:21;;;;;;;9.50;6.10;;;13.00;99.90;;;;;;5052508;28;20318;-54
2023/05/28 04:39:50;;;;;;;12.40;6.67;;;12.90;99.90;;;;;;5055487;28;20220;-53
2023/05/28 04:42:19;;;;;;;12.43;6.57;;;13.00;99.90;;;;;;5054293;28;20228;-53
2023/05/28 04:44:48;;;;;;;11.77;6.00;;;13.10;99.90;;;;;;5044918;28;20220;-54
2023/05/28 04:47:16;;;;;;;9.77;6.17;;;13.40;99.90;;;;;;5053904;28;20738;-55
2023/05/28 04:49:44;;;;;;;12.20;6.77;;;13.60;99.90;;;;;;5058814;28;20695;-54
2023/05/28 04:52:14;;;;;;;15.73;6.60;;;14.00;99.90;;;;;;5047401;28;20634;-55
2023/05/28 04:54:42;;;;;;;13.13;7.60;;;14.00;99.90;;;;;;5035494;28;20583;-54
2023/05/28 04:57:11;;;;;;;14.73;6.57;;;14.00;99.90;;;;;;5051556;28;20238;-54
2023/05/28 04:59:39;;;;;;;11.17;6.17;;;13.80;99.90;;;;;;5055096;28;20705;-54
2023/05/28 05:02:08;;;;;;;13.10;7.40;;;13.70;99.90;;;;;;5053480;28;20235;-54
2023/05/28 05:04:36;;;;;;;17.20;7.93;;;13.60;99.90;;;;;;5058506;28;20222;-54
2023/05/28 05:07:05;;;;;;;13.10;7.20;;;13.50;99.90;;;;;;5041209;28;20216;-53
2023/05/28 05:09:35;;;;;;;9.57;6.17;;;13.50;99.90;;;;;;5051104;28;20277;-54
2023/05/28 05:12:03;;;;;;;12.40;6.53;;;13.40;99.90;;;;;;5049577;28;20247;-53
2023/05/28 05:14:33;;;;;;;10.70;6.57;;;13.40;99.90;;;;;;5053396;28;20572;-53
2023/05/28 05:17:03;;;;;;;12.63;6.50;;;13.40;99.90;;;;;;5054691;28;20319;-53
2023/05/28 05:19:31;;;;;;;15.17;6.90;;;13.40;99.90;;;;;;5056425;28;20725;-53
2023/05/28 05:22:00;;;;;;;14.30;6.70;;;13.40;99.90;;;;;;5046436;28;20271;-54
2023/05/28 05:24:30;;;;;;;12.40;6.47;;;13.40;99.90;;;;;;5053267;28;20274;-54
2023/05/28 05:27:01;;;;;;;10.90;6.93;;;13.40;99.90;;;;;;5053415;28;20243;-53
2023/05/28 05:29:29;;;;;;;13.23;7.10;;;13.50;99.90;;;;;;5053203;28;20710;-54
2023/05/28 05:31:58;;;;;;;14.20;7.10;;;13.60;99.90;;;;;;5052834;28;20240;-54
2023/05/28 05:34:26;;;;;;;12.13;6.60;;;13.60;99.90;;;;;;5053088;28;20679;-53
2023/05/28 05:37:13;;;;;;;13.33;7.33;;;13.70;99.90;;;;;;5046599;28;20296;-54
2023/05/28 05:39:41;;;;;;;16.83;7.43;;;13.90;99.90;;;;;;5034715;28;20231;-54
2023/05/28 05:42:39;;;;;;;15.27;7.63;;;13.90;99.90;;;;;;4980615;28;20239;-50
2023/05/28 05:45:09;;;;;;;19.67;7.93;;;14.10;99.90;;;;;;5033191;28;20228;-54
2023/05/28 05:47:38;;;;;;;14.83;7.50;;;14.20;99.90;;;;;;5038226;28;20319;-53
2023/05/28 05:50:07;;;;;;;11.93;7.37;;;14.20;99.90;;;;;;5056598;28;20266;-54
2023/05/28 05:52:35;;;;;;;13.13;6.53;;;14.30;99.90;;;;;;5039691;28;20232;-53
2023/05/28 05:55:06;;;;;;;14.57;6.90;;;14.30;99.90;;;;;;5032607;28;20233;-54
2023/05/28 05:57:36;;;;;;;14.57;7.47;;;14.40;99.90;;;;;;5047702;28;20247;-53
2023/05/28 06:00:08;;;;;;;14.37;7.23;;;14.40;99.90;;;;;;5053836;28;20245;-53
2023/05/28 06:02:45;;;;;;;15.70;7.20;;;14.50;99.90;;;;;;5052383;28;20318;-52
2023/05/28 06:05:32;;;;;;;14.37;6.83;;;14.50;99.90;;;;;;5057674;28;20579;-53
2023/05/28 06:08:14;;;;;;;15.70;6.83;;;14.60;99.90;;;;;;5050183;28;20281;-54
2023/05/28 06:10:55;;;;;;;15.57;7.20;;;14.70;99.90;;;;;;5046740;28;20224;-53
2023/05/28 06:13:23;;;;;;;10.63;6.27;;;14.80;99.90;;;;;;5052740;28;20234;-53
2023/05/28 06:15:52;;;;;;;15.83;6.90;;;14.90;99.90;;;;;;5053807;28;20226;-55
2023/05/28 06:18:21;;;;;;;14.07;7.10;;;15.10;99.90;;;;;;5054769;28;20224;-53
2023/05/28 06:20:50;;;;;;;18.70;6.87;;;15.20;99.90;;;;;;5053619;28;20806;-54
2023/05/28 06:23:18;;;;;;;14.43;6.87;;;15.20;99.90;;;;;;5046816;28;20230;-53
2023/05/28 06:25:48;;;;;;;14.17;6.80;;;15.30;99.90;;;;;;5041302;28;20212;-53
2023/05/28 06:28:18;;;;;;;15.57;6.23;;;15.50;99.90;;;;;;5046246;28;20729;-53
2023/05/28 06:30:46;;;;;;;15.43;6.67;;;15.50;99.90;;;;;;5051479;28;20282;-53
2023/05/28 06:33:15;;;;;;;14.57;7.00;;;15.60;99.90;;;;;;5046107;28;20224;-53
2023/05/28 06:35:44;;;;;;;12.33;5.97;;;15.60;99.90;;;;;;5055340;28;20269;-52
2023/05/28 06:38:12;;;;;;;14.07;6.30;;;15.70;99.90;;;;;;5049152;28;20232;-53
2023/05/28 06:40:40;;;;;;;14.07;6.43;;;15.80;99.90;;;;;;5051614;28;20228;-54
2023/05/28 06:43:08;;;;;;;17.17;7.33;;;15.80;99.90;;;;;;5053336;28;20646;-54
2023/05/28 06:46:03;;;;;;;15.17;6.73;;;15.90;99.90;;;;;;5043151;28;20237;-53
2023/05/28 06:48:33;;;;;;;17.97;7.13;;;16.00;99.90;;;;;;5047171;28;20219;-54
2023/05/28 06:51:01;;;;;;;15.57;7.00;;;15.90;99.90;;;;;;5047046;28;20247;-53
2023/05/28 06:53:29;;;;;;;16.80;6.97;;;15.80;99.90;;;;;;5040405;28;20220;-53
2023/05/28 06:55:58;;;;;;;14.03;6.60;;;15.80;99.90;;;;;;5044632;28;20224;-54
2023/05/28 06:58:45;;;;;;;15.10;6.93;;;15.80;99.90;;;;;;5044653;28;20220;-53
2023/05/28 07:01:16;;;;;;;18.83;7.07;;;15.90;99.90;;;;;;5039217;28;20585;-54
2023/05/28 07:04:21;;;;;;;11.57;6.30;;;15.80;99.90;;;;;;5002000;28;20787;-53
2023/05/28 07:06:50;;;;;;;13.43;6.20;;;15.80;99.90;;;;;;5026955;28;20232;-54
2023/05/28 07:09:27;;;;;;;17.20;6.73;;;15.80;99.90;;;;;;5045004;28;20211;-55
2023/05/28 07:11:56;;;;;;;17.03;6.37;;;16.00;99.90;;;;;;5044866;28;20314;-54
2023/05/28 07:14:24;;;;;;;14.17;6.43;;;16.30;99.90;;;;;;5040912;28;20220;-53
2023/05/28 07:16:52;;;;;;;12.73;5.67;;;16.60;99.90;;;;;;5042833;28;20246;-54
2023/05/28 07:19:22;;;;;;;12.67;5.93;;;16.80;99.90;;;;;;5043984;28;20742;-54
2023/05/28 07:21:50;;;;;;;12.40;5.70;;;17.00;99.90;;;;;;5043979;28;20232;-53
2023/05/28 07:24:18;;;;;;;16.27;5.73;;;17.00;99.90;;;;;;5035252;28;20230;-54
2023/05/28 07:26:47;;;;;;;13.43;5.93;;;17.10;99.90;;;;;;5030988;28;20234;-54
2023/05/28 07:29:18;;;;;;;13.60;5.10;;;17.40;99.90;;;;;;5031605;28;20240;-54
2023/05/28 07:31:46;;;;;;;16.53;5.73;;;17.50;99.90;;;;;;5044500;28;20229;-54
2023/05/28 07:34:15;;;;;;;14.13;5.37;;;17.70;99.90;;;;;;5042328;28;20248;-53
2023/05/28 07:36:46;;;;;;;12.50;5.87;;;18.40;99.90;;;;;;5044643;28;20229;-50
2023/05/28 07:39:14;;;;;;;14.57;5.50;;;18.70;99.90;;;;;;5046878;28;20246;-54
2023/05/28 07:41:44;;;;;;;13.83;5.67;;;19.20;99.90;;;;;;5050174;28;20262;-51
2023/05/28 07:44:16;;;;;;;12.37;5.23;;;19.90;99.90;;;;;;5051190;28;20233;-52
2023/05/28 07:46:45;;;;;;;12.27;5.37;;;20.10;99.90;;;;;;5045805;28;20227;-52
2023/05/28 07:49:25;;;;;;;11.87;5.80;;;19.90;99.90;;;;;;5046693;28;20579;-56
2023/05/28 07:51:56;;;;;;;10.97;5.30;;;19.60;99.90;;;;;;5052253;28;20306;-58
2023/05/28 07:54:26;;;;;;;13.97;5.60;;;19.80;99.90;;;;;;5035175;28;20231;-56
2023/05/28 07:56:55;;;;;;;10.60;5.30;;;20.50;99.90;;;;;;5032219;28;20227;-58
2023/05/28 07:59:31;;;;;;;13.40;5.23;;;20.90;99.90;;;;;;5033125;28;20642;-58
2023/05/28 08:02:01;;;;;;;10.67;5.37;;;21.20;99.90;;;;;;5049866;28;20231;-58
2023/05/28 08:04:31;;;;;;;12.40;5.27;;;21.40;99.90;;;;;;5049091;28;20270;-56
2023/05/28 08:07:02;;;;;;;10.10;5.97;;;21.40;99.90;;;;;;5037114;28;20262;-55
2023/05/28 08:09:30;;;;;;;10.40;4.80;;;21.30;99.90;;;;;;5034777;28;20236;-52
2023/05/28 08:12:01;;;;;;;12.47;5.33;;;21.50;99.90;;;;;;5035152;28;20234;-55
2023/05/28 08:14:31;;;;;;;11.50;5.27;;;21.70;99.90;;;;;;5039429;28;20232;-55
2023/05/28 08:17:05;;;;;;;11.30;5.23;;;22.10;99.90;;;;;;5048096;28;20625;-58
2023/05/28 08:19:53;;;;;;;11.17;4.90;;;22.40;99.90;;;;;;5035849;28;20793;-55
2023/05/28 08:22:39;;;;;;;10.87;5.27;;;22.50;99.90;;;;;;5032688;28;20577;-55
2023/05/28 08:25:07;;;;;;;10.13;4.70;;;22.40;99.90;;;;;;5032548;28;20218;-56
2023/05/28 08:27:36;;;;;;;12.43;5.57;;;22.40;99.90;;;;;;5037721;28;20662;-58
2023/05/28 08:30:05;;;;;;;12.77;5.60;;;22.40;99.90;;;;;;5037776;28;20276;-57
2023/05/28 08:32:40;;;;;;;10.63;5.43;;;22.10;99.90;;;;;;5052440;28;20278;-57
2023/05/28 08:35:09;;;;;;;13.60;5.10;;;21.90;99.90;;;;;;5032487;28;20836;-54
2023/05/28 08:37:39;;;;;;;10.73;5.13;;;22.30;99.90;;;;;;5034863;28;20240;-54
2023/05/28 08:40:21;;;;;;;12.10;5.17;;;22.70;99.90;;;;;;5031884;28;20256;-57
2023/05/28 08:42:51;;;;;;;10.73;5.10;;;23.10;99.90;;;;;;5030801;28;20255;-55
2023/05/28 08:45:19;;;;;;;13.23;4.67;;;23.10;99.90;;;;;;5035240;28;20239;-55
2023/05/28 08:47:51;;;;;;;12.57;5.00;;;23.20;99.90;;;;;;5042468;28;20289;-57
2023/05/28 08:50:24;;;;;;;12.63;4.83;;;23.30;99.90;;;;;;5044027;28;20643;-57
2023/05/28 08:53:03;;;;;;;9.40;4.87;;;23.30;99.90;;;;;;5039532;28;20795;-55
2023/05/28 08:55:32;;;;;;;11.80;4.80;;;23.20;99.90;;;;;;5035127;28;20720;-57
2023/05/28 08:58:13;;;;;;;13.53;5.20;;;23.40;99.90;;;;;;5038040;28;20307;-57
2023/05/28 09:00:43;;;;;;;11.87;5.30;;;23.40;99.90;;;;;;5035729;28;20743;-57
2023/05/28 09:03:34;;;;;;;11.53;5.23;;;23.50;99.90;;;;;;5038320;28;20707;-58
2023/05/28 09:06:14;;;;;;;12.87;5.17;;;23.70;99.90;;;;;;5036101;28;20239;-58
2023/05/28 09:08:45;;;;;;;11.67;5.07;;;23.80;99.90;;;;;;5036434;28;20307;-57
2023/05/28 09:11:23;;;;;;;13.40;5.07;;;23.80;99.90;;;;;;5052265;28;20744;-57
2023/05/28 09:13:51;;;;;;;10.97;4.77;;;23.90;99.90;;;;;;5041170;28;20703;-56
2023/05/28 09:16:22;;;;;;;12.63;4.53;;;24.10;99.90;;;;;;5033615;28;20283;-55
2023/05/28 09:19:03;;;;;;;11.00;5.10;;;24.20;99.90;;;;;;5036349;28;20685;-52
2023/05/28 09:21:32;;;;;;;12.07;4.53;;;24.40;99.90;;;;;;5043488;28;20240;-58
2023/05/28 09:24:03;;;;;;;10.63;4.83;;;24.80;99.90;;;;;;5054357;28;20224;-58
2023/05/28 09:26:59;;;;;;;11.87;5.30;;;25.00;99.90;;;;;;5033058;28;20320;-57
2023/05/28 09:29:31;;;;;;;9.90;4.57;;;24.90;99.90;;;;;;5035188;28;20229;-58
2023/05/28 09:32:00;;;;;;;11.23;5.13;;;24.90;99.90;;;;;;5036126;28;20854;-56
2023/05/28 09:34:28;;;;;;;9.17;4.63;;;24.80;99.90;;;;;;5036663;28;20229;-54
2023/05/28 09:37:02;;;;;;;14.60;5.53;;;24.70;99.90;;;;;;5039286;28;20291;-53
2023/05/28 09:39:33;;;;;;;8.30;4.77;;;24.80;99.90;;;;;;5040424;28;20246;-56
2023/05/28 09:42:06;;;;;;;11.27;5.30;;;25.20;99.90;;;;;;5041681;28;21376;-56
2023/05/28 09:44:35;;;;;;;10.87;5.13;;;25.30;99.90;;;;;;5035760;28;20390;-57
2023/05/28 09:47:12;;;;;;;10.73;5.00;;;25.40;99.90;;;;;;5039834;28;20698;-57
2023/05/28 09:49:43;;;;;;;13.40;5.63;;;25.40;99.90;;;;;;5041663;28;20229;-57
2023/05/28 09:52:17;;;;;;;11.20;5.00;;;25.60;99.90;;;;;;5039998;28;20220;-58
2023/05/28 09:54:51;;;;;;;11.90;5.30;;;25.60;99.90;;;;;;5036661;28;20894;-55
2023/05/28 09:57:24;;;;;;;12.33;4.57;;;25.60;99.90;;;;;;5041578;28;20309;-57
2023/05/28 09:59:55;;;;;;;10.27;4.70;;;25.80;99.90;;;;;;5037960;28;20314;-54
2023/05/28 10:02:33;;;;;;;11.27;4.87;;;25.90;99.90;;;;;;5037035;28;20313;-57
2023/05/28 10:05:06;;;;;;;10.90;4.57;;;26.20;99.90;;;;;;5034388;28;20231;-56
2023/05/28 10:07:35;;;;;;;11.73;5.23;;;26.30;99.90;;;;;;5033345;28;20235;-58
2023/05/28 10:10:06;;;;;;;9.50;4.80;;;26.40;99.90;;;;;;5037243;28;20304;-58
2023/05/28 10:12:35;;;;;;;9.50;4.33;;;26.60;99.90;;;;;;5035062;28;20312;-59
2023/05/28 10:15:07;;;;;;;12.27;5.03;;;26.90;99.90;;;;;;5037613;28;20709;-58
2023/05/28 10:17:36;;;;;;;11.80;5.23;;;26.80;99.90;;;;;;5036539;28;20234;-57
2023/05/28 10:20:06;;;;;;;12.40;5.20;;;26.70;99.90;;;;;;5040570;28;20732;-58
2023/05/28 10:22:36;;;;;;;11.17;5.03;;;26.50;99.90;;;;;;5033269;28;20260;-58
2023/05/28 10:25:07;;;;;;;10.73;5.77;;;27.00;99.90;;;;;;5034757;28;20238;-58
2023/05/28 10:27:37;;;;;;;8.73;4.30;;;27.00;99.90;;;;;;5037818;28;20697;-57
2023/05/28 10:30:06;;;;;;;10.80;5.23;;;27.10;99.90;;;;;;5039249;28;20309;-56
2023/05/28 10:32:40;;;;;;;10.07;5.03;;;27.20;99.90;;;;;;5036404;28;20249;-58
2023/05/28 10:35:11;;;;;;;9.17;4.83;;;26.60;99.90;;;;;;5036125;28;20228;-52
2023/05/28 10:37:40;;;;;;;10.60;5.23;;;26.60;99.90;;;;;;5038968;28;20317;-55
2023/05/28 10:40:10;;;;;;;8.23;4.57;;;26.60;99.90;;;;;;5034774;28;20235;-56
2023/05/28 10:42:42;;;;;;;7.83;4.33;;;27.20;99.90;;;;;;5037654;28;20242;-56
2023/05/28 10:45:11;;;;;;;10.73;4.97;;;27.60;99.90;;;;;;5038584;28;20639;-56
2023/05/28 10:47:40;;;;;;;9.13;4.67;;;27.70;99.90;;;;;;5037149;28;20228;-56
2023/05/28 10:50:13;;;;;;;8.60;4.70;;;27.30;99.90;;;;;;5040501;28;20234;-54
2023/05/28 10:53:05;;;;;;;9.63;4.40;;;27.00;99.90;;;;;;5034093;28;20219;-58
2023/05/28 10:55:51;;;;;;;9.23;4.10;;;26.90;99.90;;;;;;5036198;28;20307;-52
2023/05/28 10:58:25;;;;;;;10.00;4.30;;;27.50;99.90;;;;;;5037645;28;20235;-52
2023/05/28 11:00:54;;;;;;;7.70;4.40;;;27.40;99.90;;;;;;5035885;28;20233;-53
2023/05/28 11:03:44;;;;;;;7.97;4.70;;;27.60;99.90;;;;;;5032074;28;20238;-53
2023/05/28 11:06:14;;;;;;;8.83;4.27;;;28.00;99.80;;;;;;5032852;28;20655;-53
2023/05/28 11:08:43;;;;;;;8.53;4.83;;;27.80;99.90;;;;;;5035824;28;20469;-52
2023/05/28 11:11:15;;;;;;;7.17;4.57;;;27.70;99.90;;;;;;5035226;28;20749;-53
2023/05/28 11:13:46;;;;;;;11.10;4.93;;;27.40;99.90;;;;;;5041036;28;20250;-54
2023/05/28 11:16:16;;;;;;;8.40;4.83;;;27.30;98.80;;;;;;5033639;28;20230;-53
2023/05/28 11:19:04;;;;;;;10.50;4.47;;;27.00;99.90;;;;;;5034981;28;20323;-53
2023/05/28 11:21:32;;;;;;;11.20;4.60;;;27.30;99.60;;;;;;5037021;28;20241;-53
2023/05/28 11:24:03;;;;;;;8.30;4.07;;;27.50;99.40;;;;;;5042362;28;20219;-53
2023/05/28 11:26:33;;;;;;;11.63;4.70;;;27.90;99.90;;;;;;5033605;28;20591;-53
2023/05/28 11:29:03;;;;;;;9.77;4.53;;;27.90;97.20;;;;;;5039379;28;20285;-51
2023/05/28 11:31:39;;;;;;;9.63;4.20;;;27.70;98.40;;;;;;5033058;28;20678;-55
2023/05/28 11:34:08;;;;;;;10.73;5.20;;;27.20;98.70;;;;;;5036387;28;20615;-54
2023/05/28 11:36:41;;;;;;;7.80;4.60;;;26.50;98.20;;;;;;5034565;28;20236;-50
2023/05/28 11:39:09;;;;;;;9.23;4.43;;;26.90;99.20;;;;;;5037256;28;20978;-53
2023/05/28 11:41:39;;;;;;;13.33;4.53;;;26.50;98.30;;;;;;5036403;28;20237;-51
2023/05/28 11:44:20;;;;;;;9.30;4.37;;;26.70;97.60;;;;;;5034481;28;20228;-53
2023/05/28 11:46:51;;;;;;;9.07;4.00;;;26.80;99.20;;;;;;5032771;28;20289;-51
2023/05/28 11:49:19;;;;;;;9.10;4.40;;;27.00;99.20;;;;;;5036570;28;20227;-51
2023/05/28 11:51:47;;;;;;;8.63;4.30;;;27.20;98.30;;;;;;5038115;28;20220;-54
2023/05/28 11:54:15;;;;;;;8.67;4.60;;;27.20;98.10;;;;;;5049379;28;20345;-53
2023/05/28 11:56:48;;;;;;;11.20;4.00;;;26.70;97.60;;;;;;5045207;28;20240;-53
2023/05/28 11:59:17;;;;;;;9.60;4.50;;;26.90;98.60;;;;;;5051118;28;20237;-53
2023/05/28 12:01:45;;;;;;;9.07;4.10;;;27.00;97.70;;;;;;5042671;28;20243;-53
2023/05/28 12:04:14;;;;;;;8.20;3.97;;;26.70;99.60;;;;;;5040068;28;20254;-54
2023/05/28 12:06:51;;;;;;;8.70;4.10;;;26.70;98.40;;;;;;5037480;28;20223;-54
2023/05/28 12:09:20;;;;;;;5.73;3.57;;;26.30;99.20;;;;;;5037140;28;20213;-55
2023/05/28 12:12:05;;;;;;;7.57;3.80;;;26.20;97.90;;;;;;5037980;28;20220;-53
2023/05/28 12:14:33;;;;;;;9.00;4.20;;;26.00;97.90;;;;;;5048885;28;20232;-53
2023/05/28 12:17:06;;;;;;;8.60;3.50;;;25.90;98.20;;;;;;5049164;28;20700;-53
2023/05/28 12:19:34;;;;;;;5.30;3.20;;;25.50;97.10;;;;;;5048467;28;20227;-52
2023/05/28 12:22:05;;;;;;;6.80;3.50;;;25.40;99.00;;;;;;5051446;28;20250;-53
2023/05/28 12:24:33;;;;;;;7.23;3.60;;;25.50;98.40;;;;;;5054807;28;20238;-53
2023/05/28 12:27:01;;;;;;;5.03;3.53;;;25.50;97.00;;;;;;5044721;28;20774;-53
2023/05/28 12:29:30;;;;;;;6.73;3.37;;;25.20;96.20;;;;;;5043239;28;20245;-53
2023/05/28 12:32:01;;;;;;;5.80;2.90;;;24.80;97.00;;;;;;5039531;28;20754;-53
2023/05/28 12:34:29;;;;;;;6.40;3.47;;;25.00;97.60;;;;;;5039092;28;20238;-53
2023/05/28 12:36:57;;;;;;;4.30;3.20;;;25.00;96.30;;;;;;5043238;28;20230;-52
2023/05/28 12:39:25;;;;;;;6.93;3.90;;;25.00;96.00;;;;;;5040624;28;20621;-52
2023/05/28 12:41:54;;;;;;;4.97;3.00;;;25.00;95.60;;;;;;5039415;28;21414;-52
2023/05/28 12:44:22;;;;;;;4.93;3.43;;;24.90;95.90;;;;;;5045372;28;20738;-52
2023/05/28 12:46:52;;;;;;;3.50;2.90;;;24.80;95.90;;;;;;5036950;28;20268;-53
2023/05/28 12:49:20;;;;;;;5.13;3.10;;;25.00;97.40;;;;;;5038993;28;20227;-52
2023/05/28 12:51:48;;;;;;;4.17;2.73;;;24.90;95.40;;;;;;5041310;28;20694;-53
2023/05/28 12:54:16;;;;;;;3.40;2.40;;;24.90;95.50;;;;;;5038321;28;20574;-52
2023/05/28 12:56:44;;;;;;;4.27;3.00;;;24.60;93.10;;;;;;5036667;28;20242;-50
2023/05/28 12:59:22;;;;;;;3.10;2.77;;;24.60;96.10;;;;;;5042133;28;20241;-53
2023/05/28 13:01:52;;;;;;;4.33;2.47;;;24.60;95.70;;;;;;5053607;28;20232;-52